Time;durP1;ratioP1;P1;durP2;ratioP2;P2;SDS_P1;SDS_P2;PMS_P1;PMS_P2;Temp;Humidity;BMP_temperature;BMP_pressure;BME280_temperature;BME280_humidity;BME280_pressure;Samples;Min_cycle;Max_cycle;Signal;HPM_P1;HPM_P2
2023/06/29 18:08:58;;;;;;;10.00;2.97;;;23.70;80.50;;;;;;5076249;28;20605;-73
2023/06/29 18:11:24;;;;;;;2.80;1.67;;;23.60;79.80;;;;;;5078353;28;20895;-73
2023/06/29 18:13:49;;;;;;;7.83;2.23;;;23.60;79.40;;;;;;5055401;28;20189;-73
2023/06/29 18:16:15;;;;;;;3.60;2.27;;;23.60;80.10;;;;;;5074575;28;20267;-73
2023/06/29 18:18:41;;;;;;;2.47;1.60;;;23.50;80.40;;;;;;5069900;28;20841;-73
2023/06/29 18:21:06;;;;;;;3.77;1.73;;;23.50;80.50;;;;;;5087313;28;20606;-73
2023/06/29 18:23:32;;;;;;;4.23;2.13;;;23.50;80.40;;;;;;5087529;28;20600;-73
2023/06/29 18:25:58;;;;;;;3.07;1.80;;;23.40;81.20;;;;;;5074948;28;20211;-73
2023/06/29 18:28:23;;;;;;;3.83;1.80;;;23.40;80.00;;;;;;5087729;28;20207;-73
2023/06/29 18:30:49;;;;;;;3.20;1.73;;;23.40;80.90;;;;;;5076226;28;20180;-73
2023/06/29 18:33:15;;;;;;;4.17;2.00;;;23.40;81.60;;;;;;5073314;28;20180;-73
2023/06/29 18:35:41;;;;;;;7.13;2.40;;;23.40;81.30;;;;;;5085906;28;20472;-73
2023/06/29 18:38:06;;;;;;;5.77;1.77;;;23.30;80.70;;;;;;5067532;28;20272;-73
2023/06/29 18:40:32;;;;;;;5.90;2.33;;;23.30;80.50;;;;;;5073527;28;20191;-73
2023/06/29 18:42:58;;;;;;;4.43;1.60;;;23.30;81.10;;;;;;5070361;28;20556;-73
2023/06/29 18:45:25;;;;;;;4.83;1.93;;;23.30;81.00;;;;;;5074836;28;20632;-73
2023/06/29 18:47:51;;;;;;;5.80;2.37;;;23.30;81.30;;;;;;5073527;28;20223;-73
2023/06/29 18:50:16;;;;;;;2.33;1.53;;;23.30;82.20;;;;;;5074909;28;20551;-73
2023/06/29 18:52:42;;;;;;;4.43;2.47;;;23.20;81.40;;;;;;5086520;28;20184;-73
2023/06/29 18:55:08;;;;;;;11.90;2.33;;;23.10;81.70;;;;;;5087427;28;20550;-73
2023/06/29 18:57:34;;;;;;;3.87;1.73;;;23.00;82.20;;;;;;5086820;28;20188;-73
2023/06/29 19:00:00;;;;;;;5.63;2.53;;;23.00;82.80;;;;;;5087470;28;20218;-73
2023/06/29 19:02:26;;;;;;;5.17;2.20;;;23.00;82.00;;;;;;5071487;28;20411;-73
2023/06/29 19:04:52;;;;;;;6.00;2.20;;;23.00;82.30;;;;;;5062528;28;20421;-73
2023/06/29 19:07:17;;;;;;;3.40;1.80;;;22.90;82.30;;;;;;5071693;28;20213;-73
2023/06/29 19:09:43;;;;;;;2.73;1.83;;;22.90;83.50;;;;;;5081244;28;20181;-73
2023/06/29 19:12:09;;;;;;;4.90;2.30;;;22.80;83.60;;;;;;5086675;28;20177;-73
2023/06/29 19:14:35;;;;;;;6.57;2.40;;;22.70;83.60;;;;;;5078215;28;20414;-74
2023/06/29 19:17:01;;;;;;;3.60;2.07;;;22.60;84.20;;;;;;5087489;28;20274;-73
2023/06/29 19:19:26;;;;;;;4.43;1.90;;;22.50;83.60;;;;;;5078625;28;20264;-73
2023/06/29 19:21:52;;;;;;;3.33;2.17;;;22.50;84.80;;;;;;5072655;28;20522;-73
2023/06/29 19:24:18;;;;;;;2.93;1.90;;;22.40;85.20;;;;;;5073504;28;20181;-73
2023/06/29 19:26:44;;;;;;;10.80;2.37;;;22.30;85.40;;;;;;5073076;28;20781;-73
2023/06/29 19:29:11;;;;;;;4.23;1.90;;;22.30;85.90;;;;;;5073430;28;21127;-74
2023/06/29 19:31:37;;;;;;;3.77;1.83;;;22.20;85.20;;;;;;5054932;28;20182;-73
2023/06/29 19:34:02;;;;;;;4.70;2.07;;;22.10;85.90;;;;;;5064469;28;20426;-73
2023/06/29 19:36:31;;;;;;;5.23;2.03;;;22.10;86.10;;;;;;5065044;28;20189;-73
2023/06/29 19:38:57;;;;;;;7.30;2.77;;;22.00;85.80;;;;;;5073107;28;20184;-74
2023/06/29 19:41:22;;;;;;;4.67;1.93;;;22.00;85.00;;;;;;5072652;28;20459;-74
2023/06/29 19:43:48;;;;;;;4.40;2.10;;;22.10;85.10;;;;;;5062445;28;20205;-75
2023/06/29 19:46:14;;;;;;;4.00;2.40;;;22.00;85.90;;;;;;5066705;28;20283;-73
2023/06/29 19:48:39;;;;;;;4.27;2.17;;;22.00;85.90;;;;;;5072879;28;20239;-73
2023/06/29 19:51:05;;;;;;;4.30;2.30;;;22.00;86.90;;;;;;5058892;28;20599;-74
2023/06/29 19:53:31;;;;;;;5.07;2.47;;;21.90;86.90;;;;;;5073170;28;20197;-73
2023/06/29 19:55:58;;;;;;;13.80;2.10;;;21.90;87.50;;;;;;5072872;28;20660;-73
2023/06/29 19:58:24;;;;;;;3.33;1.70;;;21.80;88.00;;;;;;5058838;28;20425;-73
2023/06/29 20:00:50;;;;;;;3.33;2.00;;;21.80;88.80;;;;;;5045629;28;20872;-73
2023/06/29 20:03:16;;;;;;;5.20;2.37;;;21.70;88.40;;;;;;5072534;28;20460;-73
2023/06/29 20:05:42;;;;;;;7.00;2.17;;;21.70;87.40;;;;;;5070532;28;20412;-73
2023/06/29 20:08:07;;;;;;;6.97;2.40;;;21.70;88.60;;;;;;5059356;28;20838;-73
2023/06/29 20:10:33;;;;;;;2.47;1.67;;;21.60;89.20;;;;;;5047653;28;20182;-73
2023/06/29 20:12:59;;;;;;;3.83;1.77;;;21.60;89.30;;;;;;5069619;28;20174;-74
2023/06/29 20:15:24;;;;;;;4.03;1.93;;;21.60;88.90;;;;;;5066108;28;20181;-75
2023/06/29 20:17:50;;;;;;;3.07;1.87;;;21.50;89.10;;;;;;5052718;28;21053;-74
2023/06/29 20:20:16;;;;;;;6.60;1.77;;;21.50;89.70;;;;;;5066924;28;20511;-74
2023/06/29 20:22:42;;;;;;;2.87;2.00;;;21.50;89.80;;;;;;5071727;28;20189;-74
2023/06/29 20:25:08;;;;;;;4.37;1.57;;;21.40;90.00;;;;;;5056076;28;20505;-74
2023/06/29 20:27:34;;;;;;;7.03;2.27;;;21.50;90.90;;;;;;5051904;28;20224;-74
2023/06/29 20:30:00;;;;;;;9.47;2.10;;;21.40;90.80;;;;;;5061464;28;20413;-75
2023/06/29 20:32:26;;;;;;;2.80;1.67;;;21.40;90.70;;;;;;5056089;28;20617;-74
2023/06/29 20:34:52;;;;;;;2.77;1.43;;;21.30;90.90;;;;;;5066398;28;20671;-74
2023/06/29 20:37:17;;;;;;;2.40;1.70;;;21.30;91.20;;;;;;5064264;28;20282;-74
2023/06/29 20:39:43;;;;;;;5.00;2.13;;;21.20;91.40;;;;;;5071816;28;20204;-74
2023/06/29 20:42:09;;;;;;;6.60;2.00;;;21.20;91.50;;;;;;5071571;28;20565;-74
2023/06/29 20:44:35;;;;;;;10.67;2.77;;;21.20;91.80;;;;;;5055726;28;20186;-74
2023/06/29 20:47:02;;;;;;;3.33;1.80;;;21.10;92.20;;;;;;5071708;28;20486;-74
2023/06/29 20:49:29;;;;;;;4.13;2.50;;;21.10;92.10;;;;;;5070521;28;20179;-74
2023/06/29 20:51:56;;;;;;;9.80;2.00;;;21.00;92.00;;;;;;5050975;28;20424;-74
2023/06/29 20:54:22;;;;;;;4.10;2.47;;;21.00;92.30;;;;;;5066577;28;20506;-74
2023/06/29 20:56:48;;;;;;;7.50;2.00;;;21.00;92.60;;;;;;5071456;28;20446;-75
2023/06/29 20:59:16;;;;;;;9.63;1.80;;;21.00;92.80;;;;;;5071426;28;20470;-74
2023/06/29 21:01:42;;;;;;;10.27;1.83;;;21.00;92.90;;;;;;5071113;28;20181;-74
2023/06/29 21:04:09;;;;;;;3.43;1.87;;;20.90;92.90;;;;;;5058571;28;20425;-74
2023/06/29 21:06:35;;;;;;;3.70;2.00;;;20.90;93.10;;;;;;5062049;28;20420;-74
2023/06/29 21:09:00;;;;;;;4.67;2.40;;;20.90;93.00;;;;;;5059718;28;20472;-74
2023/06/29 21:11:26;;;;;;;5.37;2.30;;;20.90;93.00;;;;;;5070585;28;20416;-74
2023/06/29 21:13:52;;;;;;;2.87;1.70;;;20.80;93.40;;;;;;5061830;28;20189;-74
2023/06/29 21:16:18;;;;;;;4.77;2.07;;;20.80;93.20;;;;;;5071147;28;20188;-74
2023/06/29 21:18:44;;;;;;;4.70;2.30;;;20.70;93.30;;;;;;5058894;28;20327;-73
2023/06/29 21:21:10;;;;;;;4.80;2.20;;;20.70;93.50;;;;;;5070029;28;20200;-73
2023/06/29 21:23:35;;;;;;;3.60;1.97;;;20.60;93.40;;;;;;5071114;28;20428;-73
2023/06/29 21:26:01;;;;;;;4.03;2.10;;;20.60;93.70;;;;;;5071003;28;20203;-73
2023/06/29 21:28:28;;;;;;;5.07;2.37;;;20.60;93.90;;;;;;5070475;28;20204;-73
2023/06/29 21:30:54;;;;;;;7.40;2.47;;;20.50;94.00;;;;;;5050531;28;20618;-73
2023/06/29 21:33:20;;;;;;;5.30;2.00;;;20.60;94.00;;;;;;5055089;28;20420;-73
2023/06/29 21:35:46;;;;;;;5.07;2.50;;;20.60;94.20;;;;;;5068259;28;20227;-73
2023/06/29 21:38:12;;;;;;;5.87;2.10;;;20.60;94.10;;;;;;5064401;28;20798;-73
2023/06/29 21:40:38;;;;;;;7.37;2.60;;;20.60;93.70;;;;;;5070374;28;20208;-74
2023/06/29 21:43:04;;;;;;;3.87;2.53;;;20.70;93.60;;;;;;5065242;28;20188;-74
2023/06/29 21:45:30;;;;;;;7.47;2.20;;;20.60;93.60;;;;;;5071055;28;20423;-74
2023/06/29 21:47:55;;;;;;;4.90;2.70;;;20.60;93.60;;;;;;5070597;28;20573;-74
2023/06/29 21:50:21;;;;;;;3.43;1.40;;;20.60;93.70;;;;;;5071231;28;20278;-74
2023/06/29 21:52:46;;;;;;;3.13;1.37;;;20.50;93.80;;;;;;5070573;28;20504;-74
2023/06/29 21:55:12;;;;;;;4.20;1.90;;;20.50;93.90;;;;;;5064919;28;20186;-74
2023/06/29 21:57:38;;;;;;;7.00;2.67;;;20.50;94.10;;;;;;5064014;28;20181;-74
2023/06/29 22:00:04;;;;;;;5.23;2.50;;;20.40;94.20;;;;;;5072032;28;20570;-73
2023/06/29 22:02:30;;;;;;;3.30;1.90;;;20.40;94.20;;;;;;5070504;28;20225;-73
